Portada
METAR-TAF:

Aeropuertos :

Vitória, Espírito Santo, Brasil

latitud: 20-16S, longitud: 040-17W, altitud: 4 m

Observación

El informe se hizo hace 19 minutos, a las 03:00 UTC
Viento 7 kt del norte
Temperatura 23°C
Humedad 73%
Presión 1017 hPa
Visibilidad 10 km o más
Nubes dispersas a una altura de 2000 ft
Cielo nuboso a una altura de 3500 ft

METAR: SBVT 290300Z 01007KT 9999 SCT020 BKN035 23/18 Q1017

Hora: 00:19 (03:19 UTC)

Pronóstico

El informe se hizo hace 5 horas y 19 minutos, a las 22:00 UTC
Pronóstico válido del 29 a las 00 UTC al 29 a las 24 UTC
Viento 7 kt del sur-suroeste
Visibilidad 10 km o más
Nubes dispersas a una altura de 3000 ft
Evolucionando progresivamente
del 29 a las 10 UTC al 29 a las 12 UTC
Viento 12 kt del sur-sureste

TAF: SBVT 282200Z 2900/2924 21007KT 9999 SCT030 TN22/2906Z TX26/2915Z BECMG 2910/2912 16012KT RMK PBC

METAR-TAF

Observaciones y pronósticos meteorológicos de más de 4000 aeropuertos (mensajes METAR y TAF).

Los puntos amarillos y rojos representan las estaciones disponibles.

Ponga el ratón en el punto deseado para ver el nombre de la estación.

Haga clic para ver las observaciones y los pronósticos meteorológicos.

Para cambiar el mapa : haga clic en los botones verdes con una cruz de color negro para hacer un zoom, en el botón verde con un guión para alejar o en las flechas verdes para mapas adyacentes.


METAR-TAF: